createdAt,value
2023-05-19T00:01:30.163Z,6.25
2023-05-19T00:04:02.791Z,5.38
2023-05-19T00:06:33.399Z,4.28
2023-05-19T00:09:04.950Z,3.67
2023-05-19T00:11:33.506Z,4.05
2023-05-19T00:14:01.268Z,3.20
2023-05-19T00:16:30.917Z,3.47
2023-05-19T00:19:00.317Z,3.92
2023-05-19T00:21:29.532Z,3.83
2023-05-19T00:23:57.978Z,4.22
2023-05-19T00:26:27.808Z,4.38
2023-05-19T00:28:55.631Z,4.65
2023-05-19T00:31:29.638Z,4.20
2023-05-19T00:33:57.258Z,4.60
2023-05-19T00:36:25.287Z,4.60
2023-05-19T00:38:52.870Z,4.93
2023-05-19T00:41:21.415Z,5.22
2023-05-19T00:43:49.588Z,4.43
2023-05-19T00:46:18.612Z,4.82
2023-05-19T00:48:46.188Z,4.63
2023-05-19T00:51:17.250Z,5.10
2023-05-19T00:53:49.484Z,4.72
2023-05-19T00:56:18.501Z,5.43
2023-05-19T00:58:46.121Z,5.25
2023-05-19T01:01:17.422Z,4.40
2023-05-19T01:03:45.433Z,5.13
2023-05-19T01:06:13.212Z,5.22
2023-05-19T01:08:40.787Z,5.35
2023-05-19T01:11:08.882Z,5.05
2023-05-19T01:13:38.184Z,4.82
2023-05-19T01:16:40.363Z,4.85
2023-05-19T01:20:02.262Z,4.57
2023-05-19T01:23:15.299Z,5.10
2023-05-19T01:26:16.316Z,5.07
2023-05-19T01:29:17.250Z,4.40
2023-05-19T01:31:48.135Z,4.88
2023-05-19T01:34:18.623Z,5.20
2023-05-19T01:36:50.004Z,4.68
2023-05-19T01:39:18.799Z,4.78
2023-05-19T01:41:47.554Z,5.50
2023-05-19T01:44:16.357Z,4.82
2023-05-19T01:46:43.979Z,4.88
2023-05-19T01:49:12.012Z,5.10
2023-05-19T01:51:40.840Z,5.40
2023-05-19T01:54:08.505Z,5.50
2023-05-19T01:56:52.034Z,5.32
2023-05-19T01:59:43.236Z,4.57
2023-05-19T02:03:01.329Z,5.30
2023-05-19T02:05:55.742Z,4.70
2023-05-19T02:08:50.375Z,4.82
2023-05-19T02:11:54.657Z,5.15
2023-05-19T02:15:05.053Z,4.90
2023-05-19T02:17:38.483Z,5.03
2023-05-19T02:20:07.440Z,5.43
2023-05-19T02:22:36.078Z,5.75
2023-05-19T02:25:03.675Z,5.65
2023-05-19T02:27:31.446Z,5.35
2023-05-19T02:29:58.901Z,5.45
2023-05-19T02:32:26.579Z,5.55
2023-05-19T02:34:56.618Z,4.93
2023-05-19T02:37:25.378Z,5.50
2023-05-19T02:39:52.645Z,4.60
2023-05-19T02:42:20.623Z,5.35
2023-05-19T02:44:48.503Z,4.82
2023-05-19T02:47:16.205Z,4.82
2023-05-19T02:49:44.292Z,5.07
2023-05-19T02:52:12.434Z,4.45
2023-05-19T02:54:39.777Z,4.18
2023-05-19T02:57:07.508Z,4.43
2023-05-19T02:59:34.961Z,3.88
2023-05-19T03:02:03.128Z,3.95
2023-05-19T03:04:30.665Z,3.90
2023-05-19T03:06:58.309Z,3.58
2023-05-19T03:09:25.786Z,3.60
2023-05-19T03:11:53.345Z,4.18
2023-05-19T03:14:24.136Z,3.40
2023-05-19T03:16:52.429Z,3.58
2023-05-19T03:19:20.023Z,4.18
2023-05-19T03:21:49.732Z,3.88
2023-05-19T03:24:17.802Z,3.47
2023-05-19T03:26:46.033Z,3.55
2023-05-19T03:29:13.386Z,3.85
2023-05-19T03:31:41.001Z,3.88
2023-05-19T03:34:08.372Z,5.07
2023-05-19T03:36:39.930Z,4.10
2023-05-19T03:39:07.435Z,3.65
2023-05-19T03:41:35.044Z,4.15
2023-05-19T03:44:02.374Z,4.10
2023-05-19T03:46:30.016Z,3.95
2023-05-19T03:48:57.360Z,4.28
2023-05-19T03:51:25.034Z,4.00
2023-05-19T03:53:52.759Z,4.53
2023-05-19T03:56:23.201Z,4.82
2023-05-19T03:58:50.667Z,4.60
2023-05-19T04:01:18.337Z,4.55
2023-05-19T04:03:45.778Z,5.05
2023-05-19T04:06:13.484Z,5.18
2023-05-19T04:08:40.922Z,5.30
2023-05-19T04:11:08.586Z,5.22
2023-05-19T04:13:35.988Z,5.20
2023-05-19T04:16:03.827Z,4.70
2023-05-19T04:18:31.605Z,5.63
2023-05-19T04:20:59.173Z,6.15
2023-05-19T04:23:26.556Z,7.35
2023-05-19T04:25:54.991Z,5.55
2023-05-19T04:28:24.014Z,6.47
2023-05-19T04:30:51.864Z,6.03
2023-05-19T04:33:20.260Z,5.32
2023-05-19T04:35:47.939Z,6.63
2023-05-19T04:38:19.010Z,6.70
2023-05-19T04:40:50.421Z,5.82
2023-05-19T04:43:19.442Z,5.80
2023-05-19T04:45:50.304Z,6.57
2023-05-19T04:48:17.679Z,6.22
2023-05-19T04:50:45.462Z,6.60
2023-05-19T04:53:12.762Z,6.63
2023-05-19T04:55:40.523Z,6.50
2023-05-19T04:58:08.106Z,7.03
2023-05-19T05:00:37.545Z,6.53
2023-05-19T05:03:08.116Z,7.35
2023-05-19T05:05:36.220Z,7.15
2023-05-19T05:08:03.711Z,7.05
2023-05-19T05:10:31.484Z,6.53
2023-05-19T05:13:00.877Z,6.45
2023-05-19T05:15:29.978Z,6.68
2023-05-19T05:17:58.106Z,7.13
2023-05-19T05:20:26.742Z,6.80
2023-05-19T05:22:54.578Z,6.05
2023-05-19T05:25:22.705Z,7.93
2023-05-19T05:27:50.150Z,7.85
2023-05-19T05:30:17.775Z,6.43
2023-05-19T05:32:45.292Z,6.43
2023-05-19T05:35:13.362Z,6.38
2023-05-19T05:37:40.670Z,7.43
2023-05-19T05:40:09.260Z,7.47
2023-05-19T05:42:36.617Z,6.43
2023-05-19T05:45:04.701Z,7.68
2023-05-19T05:47:32.480Z,6.60
2023-05-19T05:50:00.505Z,7.03
2023-05-19T05:52:32.320Z,7.68
2023-05-19T05:55:00.391Z,10.75
2023-05-19T05:57:30.648Z,7.30
2023-05-19T05:59:58.505Z,6.60
2023-05-19T06:02:26.297Z,6.78
2023-05-19T06:04:54.366Z,7.63
2023-05-19T06:07:21.939Z,6.80
2023-05-19T06:09:49.564Z,6.63
2023-05-19T06:12:16.946Z,7.05
2023-05-19T06:14:44.519Z,6.93
2023-05-19T06:17:11.827Z,7.57
2023-05-19T06:19:39.351Z,6.30
2023-05-19T06:22:06.833Z,7.32
2023-05-19T06:24:34.464Z,6.78
2023-05-19T06:27:01.783Z,6.53
2023-05-19T06:29:29.580Z,6.70
2023-05-19T06:31:57.134Z,5.78
2023-05-19T06:34:24.848Z,6.97
2023-05-19T06:36:52.187Z,7.03
2023-05-19T06:39:19.815Z,7.40
2023-05-19T06:41:47.174Z,7.25
2023-05-19T06:44:14.801Z,7.63
2023-05-19T06:46:42.209Z,7.68
2023-05-19T06:49:11.539Z,9.38
2023-05-19T06:51:38.883Z,6.88
2023-05-19T06:54:06.538Z,7.53
2023-05-19T06:56:33.819Z,6.90
2023-05-19T06:59:01.511Z,6.78
2023-05-19T07:01:30.342Z,7.03
2023-05-19T07:03:58.153Z,6.97
2023-05-19T07:06:25.604Z,6.75
2023-05-19T07:08:53.366Z,6.63
2023-05-19T07:11:21.750Z,7.05
2023-05-19T07:13:49.371Z,7.57
2023-05-19T07:16:16.730Z,7.47
2023-05-19T07:18:44.650Z,7.65
2023-05-19T07:21:11.963Z,7.13
2023-05-19T07:23:39.626Z,7.13
2023-05-19T07:26:07.075Z,11.05
2023-05-19T07:28:34.889Z,13.35
2023-05-19T07:31:02.592Z,17.67
2023-05-19T07:33:30.101Z,7.55
2023-05-19T07:35:57.424Z,7.65
2023-05-19T07:38:25.314Z,7.30
2023-05-19T07:40:52.790Z,6.80
2023-05-19T07:43:20.374Z,7.47
2023-05-19T07:45:47.732Z,6.82
2023-05-19T07:48:15.525Z,7.45
2023-05-19T07:50:43.080Z,8.32
2023-05-19T07:53:10.748Z,8.32
2023-05-19T07:55:38.034Z,8.05
2023-05-19T07:58:06.048Z,7.05
2023-05-19T08:00:33.502Z,8.10
2023-05-19T08:03:02.421Z,7.90
2023-05-19T08:05:30.103Z,7.22
2023-05-19T08:07:57.785Z,8.50
2023-05-19T08:10:25.151Z,7.50
2023-05-19T08:12:52.869Z,8.98
2023-05-19T08:15:21.049Z,10.77
2023-05-19T08:17:48.759Z,16.90
2023-05-19T08:20:16.229Z,10.07
2023-05-19T08:22:43.840Z,10.02
2023-05-19T08:25:11.813Z,8.70
2023-05-19T08:27:39.451Z,8.05
2023-05-19T08:30:08.216Z,8.25
2023-05-19T08:32:36.487Z,8.05
2023-05-19T08:35:04.380Z,8.82
2023-05-19T08:37:34.014Z,7.63
2023-05-19T08:40:01.532Z,7.22
2023-05-19T08:42:29.412Z,7.78
2023-05-19T08:44:56.895Z,8.60
2023-05-19T08:47:26.165Z,7.90
2023-05-19T08:50:03.878Z,9.45
2023-05-19T08:52:58.369Z,7.78
2023-05-19T08:55:41.356Z,8.98
2023-05-19T08:58:10.881Z,8.68
2023-05-19T09:00:39.187Z,7.75
2023-05-19T09:05:39.742Z,9.02
2023-05-19T09:08:07.886Z,17.63
2023-05-19T09:10:35.262Z,11.98
2023-05-19T09:13:02.953Z,10.02
2023-05-19T09:15:32.928Z,8.48
2023-05-19T09:18:19.033Z,9.00
2023-05-19T09:20:47.501Z,8.07
2023-05-19T09:23:17.316Z,9.02
2023-05-19T09:25:52.289Z,8.02
2023-05-19T09:28:30.581Z,9.20
2023-05-19T09:31:02.186Z,8.50
2023-05-19T09:33:31.654Z,8.00
2023-05-19T09:35:59.238Z,7.30
2023-05-19T09:38:28.444Z,7.40
2023-05-19T09:41:00.952Z,7.82
2023-05-19T09:43:36.652Z,8.43
2023-05-19T09:46:10.526Z,8.73
2023-05-19T09:48:40.445Z,16.75
2023-05-19T09:51:11.215Z,23.30
2023-05-19T09:53:39.552Z,9.00
2023-05-19T09:56:10.396Z,30.90
2023-05-19T09:58:42.243Z,14.40
2023-05-19T10:01:09.909Z,10.52
2023-05-19T10:03:39.386Z,8.68
2023-05-19T10:06:09.336Z,8.07
2023-05-19T10:08:39.919Z,8.25
2023-05-19T10:11:08.371Z,7.68
2023-05-19T10:13:39.457Z,6.88
2023-05-19T10:16:09.599Z,7.28
2023-05-19T10:18:40.190Z,6.72
2023-05-19T10:21:09.737Z,7.20
2023-05-19T10:23:37.680Z,7.25
2023-05-19T10:26:07.600Z,6.70
2023-05-19T10:28:43.101Z,7.05
2023-05-19T10:31:18.698Z,6.70
2023-05-19T10:34:22.383Z,7.00
2023-05-19T10:37:21.819Z,6.38
2023-05-19T10:39:52.671Z,12.52
2023-05-19T10:42:38.298Z,13.68
2023-05-19T10:45:24.204Z,9.70
2023-05-19T10:47:51.982Z,5.75
2023-05-19T10:50:21.064Z,6.60
2023-05-19T10:52:55.952Z,7.15
2023-05-19T10:55:48.072Z,7.57
2023-05-19T10:58:15.750Z,8.70
2023-05-19T11:00:43.775Z,10.35
2023-05-19T11:03:17.900Z,7.93
2023-05-19T11:05:46.556Z,8.13
2023-05-19T11:08:14.258Z,7.20
2023-05-19T11:10:46.397Z,7.13
2023-05-19T11:13:28.413Z,7.68
2023-05-19T11:15:56.743Z,11.73
2023-05-19T11:18:24.853Z,9.75
2023-05-19T11:21:02.677Z,6.63
2023-05-19T11:23:35.508Z,7.40
2023-05-19T11:26:03.516Z,7.22
2023-05-19T11:28:31.451Z,7.70
2023-05-19T11:31:02.322Z,7.90
2023-05-19T11:33:32.819Z,7.25
2023-05-19T11:36:00.741Z,6.95
2023-05-19T11:38:30.409Z,6.47
2023-05-19T11:40:58.270Z,7.30
2023-05-19T11:43:26.341Z,7.78
2023-05-19T11:45:55.265Z,6.93
2023-05-19T11:48:23.451Z,6.90
2023-05-19T11:50:51.424Z,7.25
2023-05-19T11:53:19.973Z,6.95
2023-05-19T11:55:49.011Z,6.93
2023-05-19T11:58:17.395Z,5.85
2023-05-19T12:00:49.072Z,7.05
2023-05-19T12:03:21.906Z,6.40
2023-05-19T12:05:50.365Z,7.97
2023-05-19T12:08:21.776Z,11.80
2023-05-19T12:10:50.950Z,14.82
2023-05-19T12:13:19.452Z,8.18
2023-05-19T12:15:47.332Z,7.25
2023-05-19T12:18:14.791Z,8.52
2023-05-19T12:20:43.218Z,8.82
2023-05-19T12:23:10.949Z,8.00
2023-05-19T12:25:38.802Z,7.50
2023-05-19T12:28:07.414Z,7.47
2023-05-19T12:30:35.570Z,7.05
2023-05-19T12:33:03.679Z,7.80
2023-05-19T12:35:34.237Z,7.13
2023-05-19T12:38:07.002Z,8.27
2023-05-19T12:40:37.709Z,7.70
2023-05-19T12:43:07.059Z,9.52
2023-05-19T12:45:39.972Z,9.70
2023-05-19T12:48:12.706Z,12.15
2023-05-19T12:50:40.726Z,10.23
2023-05-19T12:53:15.431Z,12.27
2023-05-19T12:55:45.633Z,22.48
2023-05-19T12:58:15.954Z,9.93
2023-05-19T13:00:48.624Z,11.45
2023-05-19T13:03:19.710Z,11.18
2023-05-19T13:05:51.021Z,6.50
2023-05-19T13:08:24.166Z,6.22
2023-05-19T13:10:52.099Z,6.07
2023-05-19T13:13:19.580Z,7.25
2023-05-19T13:15:49.230Z,6.70
2023-05-19T13:18:17.732Z,6.95
2023-05-19T13:20:47.440Z,6.72
2023-05-19T13:23:16.031Z,6.50
2023-05-19T13:25:43.879Z,6.97
2023-05-19T13:28:11.273Z,7.07
2023-05-19T13:30:41.446Z,7.20
2023-05-19T13:33:09.071Z,10.40
2023-05-19T13:35:37.954Z,8.35
2023-05-19T13:38:08.001Z,7.78
2023-05-19T13:40:36.795Z,7.13
2023-05-19T13:43:05.142Z,6.80
2023-05-19T13:45:33.112Z,7.07
2023-05-19T13:48:00.743Z,6.47
2023-05-19T13:50:28.526Z,6.47
2023-05-19T13:52:55.938Z,7.68
2023-05-19T13:55:23.716Z,6.95
2023-05-19T13:57:51.047Z,7.30
2023-05-19T14:00:19.537Z,7.18
2023-05-19T14:02:47.347Z,7.68
2023-05-19T14:05:15.059Z,7.50
2023-05-19T14:07:42.749Z,7.43
2023-05-19T14:10:10.773Z,7.70
2023-05-19T14:12:55.125Z,8.98
2023-05-19T14:15:27.084Z,11.60
2023-05-19T14:17:54.568Z,14.85
2023-05-19T14:20:22.305Z,15.02
2023-05-19T14:22:49.585Z,8.23
2023-05-19T14:25:17.259Z,8.52
2023-05-19T14:27:44.569Z,8.00
2023-05-19T14:30:12.817Z,9.85
2023-05-19T14:32:40.205Z,9.55
2023-05-19T14:35:08.289Z,9.40
2023-05-19T14:37:35.712Z,9.20
2023-05-19T14:40:04.656Z,10.40
2023-05-19T14:42:32.012Z,9.45
2023-05-19T14:44:59.592Z,9.85
2023-05-19T14:47:27.443Z,11.23
2023-05-19T14:49:55.317Z,14.35
2023-05-19T14:52:23.117Z,13.23
2023-05-19T14:54:50.785Z,11.40
2023-05-19T14:57:18.051Z,10.07
2023-05-19T14:59:45.596Z,10.52
2023-05-19T15:02:12.965Z,10.40
2023-05-19T15:04:40.660Z,10.32
2023-05-19T15:07:10.728Z,10.15
2023-05-19T15:09:39.672Z,10.30
2023-05-19T15:12:06.976Z,11.30
2023-05-19T15:14:34.545Z,11.43
2023-05-19T15:17:01.945Z,12.38
2023-05-19T15:19:29.536Z,11.82
2023-05-19T15:21:56.951Z,9.93
2023-05-19T15:24:24.573Z,10.98
2023-05-19T15:26:52.523Z,9.88
2023-05-19T15:29:20.176Z,11.75
2023-05-19T15:31:51.896Z,11.18
2023-05-19T15:34:20.952Z,11.88
2023-05-19T15:36:48.249Z,12.05
2023-05-19T15:39:16.004Z,11.35
2023-05-19T15:41:43.377Z,11.10
2023-05-19T15:44:11.083Z,12.02
2023-05-19T15:46:38.448Z,15.73
2023-05-19T15:49:06.153Z,12.30
2023-05-19T15:51:33.684Z,12.80
2023-05-19T15:54:01.198Z,11.63
2023-05-19T15:56:29.085Z,12.50
2023-05-19T15:58:56.738Z,12.68
2023-05-19T16:01:24.160Z,12.65
2023-05-19T16:03:52.024Z,12.38
2023-05-19T16:06:19.468Z,12.52
2023-05-19T16:08:47.128Z,13.75
2023-05-19T16:11:14.698Z,12.75
2023-05-19T16:13:42.300Z,14.18
2023-05-19T16:16:09.790Z,16.00
2023-05-19T16:18:37.560Z,14.55
2023-05-19T16:21:05.281Z,13.07
2023-05-19T16:23:32.951Z,13.30
2023-05-19T16:26:00.389Z,11.77
2023-05-19T16:28:28.785Z,13.10
2023-05-19T16:31:00.255Z,12.70
2023-05-19T16:33:28.583Z,12.43
2023-05-19T16:35:56.396Z,13.15
2023-05-19T16:38:23.996Z,12.40
2023-05-19T16:40:51.275Z,13.77
2023-05-19T16:43:18.914Z,13.77
2023-05-19T16:45:46.343Z,14.05
2023-05-19T16:48:14.053Z,13.38
2023-05-19T16:50:41.452Z,13.55
2023-05-19T16:53:09.046Z,14.35
2023-05-19T16:55:36.362Z,14.60
2023-05-19T16:58:04.048Z,14.73
2023-05-19T17:00:31.510Z,14.85
2023-05-19T17:02:59.426Z,13.77
2023-05-19T17:05:27.862Z,14.55
2023-05-19T17:07:55.534Z,15.00
2023-05-19T17:10:22.822Z,18.38
2023-05-19T17:12:50.440Z,13.63
2023-05-19T17:15:17.846Z,13.05
2023-05-19T17:17:45.482Z,12.65
2023-05-19T17:20:13.604Z,13.27
2023-05-19T17:22:41.266Z,11.80
2023-05-19T17:25:09.474Z,12.05
2023-05-19T17:27:37.104Z,13.13
2023-05-19T17:30:05.075Z,12.00
2023-05-19T17:32:36.010Z,12.45
2023-05-19T17:35:05.469Z,13.70
2023-05-19T17:37:33.588Z,12.55
2023-05-19T17:40:01.108Z,12.98
2023-05-19T17:42:29.328Z,14.65
2023-05-19T17:44:56.611Z,13.90
2023-05-19T17:47:24.237Z,14.35
2023-05-19T17:49:54.457Z,15.77
2023-05-19T17:52:22.547Z,16.45
2023-05-19T17:54:50.854Z,16.30
2023-05-19T17:57:18.804Z,16.02
2023-05-19T17:59:46.647Z,17.45
2023-05-19T18:02:15.771Z,15.43
2023-05-19T18:04:43.900Z,15.88
2023-05-19T18:07:12.230Z,15.35
2023-05-19T18:09:45.691Z,15.70
2023-05-19T18:12:13.650Z,15.30
2023-05-19T18:14:40.993Z,15.10
2023-05-19T18:17:08.648Z,19.00
2023-05-19T18:19:36.067Z,17.25
2023-05-19T18:22:03.788Z,21.95
2023-05-19T18:24:31.284Z,15.30
2023-05-19T18:26:59.075Z,14.45
2023-05-19T18:29:26.420Z,14.38
2023-05-19T18:31:54.108Z,15.93
2023-05-19T18:34:21.527Z,14.75
2023-05-19T18:36:49.350Z,13.35
2023-05-19T18:39:16.768Z,13.73
2023-05-19T18:41:44.444Z,13.50
2023-05-19T18:44:12.155Z,13.13
2023-05-19T18:46:40.016Z,14.57
2023-05-19T18:49:07.436Z,14.75
2023-05-19T18:51:36.172Z,14.70
2023-05-19T18:54:03.579Z,15.18
2023-05-19T18:56:33.396Z,13.63
2023-05-19T18:59:00.648Z,13.02
2023-05-19T19:01:28.500Z,13.43
2023-05-19T19:03:56.010Z,14.45
2023-05-19T19:06:23.604Z,14.20
2023-05-19T19:08:51.617Z,14.02
2023-05-19T19:11:19.271Z,17.75
2023-05-19T19:13:47.105Z,15.23
2023-05-19T19:16:15.857Z,16.23
2023-05-19T19:18:43.338Z,13.93
2023-05-19T19:21:11.131Z,14.95
2023-05-19T19:23:38.666Z,15.48
2023-05-19T19:26:08.615Z,15.10
2023-05-19T19:28:35.928Z,15.27
2023-05-19T19:31:03.739Z,15.48
2023-05-19T19:33:31.068Z,14.85
2023-05-19T19:35:58.665Z,15.68
2023-05-19T19:38:25.973Z,12.98
2023-05-19T19:40:53.723Z,14.73
2023-05-19T19:43:20.968Z,15.18
2023-05-19T19:45:48.573Z,15.40
2023-05-19T19:48:15.998Z,15.30
2023-05-19T19:50:43.522Z,17.23
2023-05-19T19:53:11.053Z,15.15
2023-05-19T19:55:38.612Z,16.27
2023-05-19T19:58:06.007Z,14.90
2023-05-19T20:00:33.805Z,15.18
2023-05-19T20:03:05.584Z,15.35
2023-05-19T20:05:33.667Z,15.80
2023-05-19T20:08:01.272Z,14.98
2023-05-19T20:10:28.929Z,15.43
2023-05-19T20:12:56.425Z,15.38
2023-05-19T20:15:23.970Z,15.18
2023-05-19T20:17:51.335Z,15.10
2023-05-19T20:20:19.038Z,16.13
2023-05-19T20:22:46.421Z,14.77
2023-05-19T20:25:14.122Z,14.68
2023-05-19T20:27:41.414Z,14.60
2023-05-19T20:30:09.621Z,14.25
2023-05-19T20:32:37.159Z,13.57
2023-05-19T20:35:06.924Z,14.45
2023-05-19T20:37:34.423Z,13.13
2023-05-19T20:40:02.047Z,14.55
2023-05-19T20:42:29.376Z,13.95
2023-05-19T20:44:57.463Z,12.93
2023-05-19T20:47:24.968Z,13.85
2023-05-19T20:49:52.592Z,12.75
2023-05-19T20:52:19.905Z,14.35
2023-05-19T20:54:47.503Z,13.88
2023-05-19T20:57:14.864Z,14.25
2023-05-19T20:59:42.784Z,14.52
2023-05-19T21:02:11.698Z,14.00
2023-05-19T21:04:39.638Z,15.50
2023-05-19T21:07:07.021Z,16.52
2023-05-19T21:09:34.619Z,16.38
2023-05-19T21:12:02.358Z,17.23
2023-05-19T21:14:29.991Z,16.85
2023-05-19T21:16:57.301Z,17.17
2023-05-19T21:19:25.104Z,16.10
2023-05-19T21:21:52.537Z,18.45
2023-05-19T21:24:20.122Z,17.25
2023-05-19T21:26:49.297Z,19.27
2023-05-19T21:29:17.026Z,21.02
2023-05-19T21:31:44.306Z,17.95
2023-05-19T21:34:11.926Z,19.15
2023-05-19T21:36:39.282Z,18.33
2023-05-19T21:39:06.829Z,18.55
2023-05-19T21:41:34.298Z,17.98
2023-05-19T21:44:02.027Z,18.52
2023-05-19T21:46:29.574Z,16.05
2023-05-19T21:48:57.209Z,18.98
2023-05-19T21:51:24.525Z,19.75
2023-05-19T21:53:52.080Z,18.27
2023-05-19T21:56:19.428Z,19.58
2023-05-19T21:58:46.972Z,18.75
2023-05-19T22:01:14.759Z,19.52
2023-05-19T22:03:42.430Z,17.83
2023-05-19T22:06:09.732Z,16.65
2023-05-19T22:08:37.297Z,17.60
2023-05-19T22:11:04.951Z,17.27
2023-05-19T22:13:33.970Z,17.15
2023-05-19T22:16:01.492Z,15.82
2023-05-19T22:18:29.354Z,17.20
2023-05-19T22:20:56.668Z,18.40
2023-05-19T22:23:24.671Z,16.08
2023-05-19T22:25:52.287Z,16.35
2023-05-19T22:28:19.959Z,17.42
2023-05-19T22:30:47.272Z,17.15
2023-05-19T22:33:15.115Z,17.70
2023-05-19T22:35:42.668Z,16.23
2023-05-19T22:38:10.805Z,15.73
2023-05-19T22:40:38.896Z,17.27
2023-05-19T22:43:06.569Z,15.50
2023-05-19T22:45:36.630Z,17.60
2023-05-19T22:48:05.117Z,19.08
2023-05-19T22:50:32.538Z,16.50
2023-05-19T22:53:00.311Z,18.10
2023-05-19T22:55:27.628Z,16.63
2023-05-19T22:57:56.296Z,16.45
2023-05-19T23:00:23.775Z,17.02
2023-05-19T23:02:51.525Z,16.17
2023-05-19T23:05:19.189Z,17.13
2023-05-19T23:07:47.222Z,17.27
2023-05-19T23:10:14.768Z,17.33
2023-05-19T23:12:42.557Z,18.55
2023-05-19T23:15:11.143Z,16.83
2023-05-19T23:17:38.797Z,18.45
2023-05-19T23:20:07.425Z,18.85
2023-05-19T23:22:35.024Z,18.15
2023-05-19T23:25:05.897Z,17.95
2023-05-19T23:27:35.712Z,18.25
2023-05-19T23:30:04.235Z,18.90
2023-05-19T23:32:32.349Z,20.20
2023-05-19T23:35:11.014Z,17.05
2023-05-19T23:37:39.111Z,19.25
2023-05-19T23:40:07.688Z,17.83
2023-05-19T23:42:41.527Z,16.48
2023-05-19T23:45:09.333Z,18.77
2023-05-19T23:47:36.995Z,20.02
2023-05-19T23:50:04.646Z,18.45
2023-05-19T23:52:32.892Z,18.42
2023-05-19T23:55:00.405Z,17.08
2023-05-19T23:57:27.954Z,17.98
2023-05-19T23:59:55.208Z,21.85
